createdAt,value
2023-03-07T00:00:47.012Z,4.30
2023-03-07T00:03:16.771Z,4.47
2023-03-07T00:05:46.121Z,4.13
2023-03-07T00:08:14.076Z,4.53
2023-03-07T00:10:41.980Z,4.30
2023-03-07T00:13:11.267Z,4.73
2023-03-07T00:15:40.530Z,4.60
2023-03-07T00:18:08.660Z,4.90
2023-03-07T00:20:36.611Z,4.43
2023-03-07T00:23:04.945Z,4.50
2023-03-07T00:25:32.838Z,4.47
2023-03-07T00:28:00.740Z,4.53
2023-03-07T00:30:30.259Z,4.87
2023-03-07T00:32:58.998Z,5.40
2023-03-07T00:35:27.028Z,4.30
2023-03-07T00:37:54.956Z,4.77
2023-03-07T00:40:22.855Z,4.50
2023-03-07T00:42:50.877Z,5.00
2023-03-07T00:45:18.725Z,5.43
2023-03-07T00:47:48.000Z,4.70
2023-03-07T00:50:16.075Z,4.63
2023-03-07T00:52:43.966Z,5.43
2023-03-07T00:55:12.064Z,5.17
2023-03-07T00:57:39.983Z,4.70
2023-03-07T01:00:10.742Z,4.83
2023-03-07T01:02:38.638Z,4.70
2023-03-07T01:05:11.001Z,4.63
2023-03-07T01:07:38.932Z,4.90
2023-03-07T01:10:07.673Z,4.97
2023-03-07T01:12:36.427Z,5.20
2023-03-07T01:15:05.434Z,4.60
2023-03-07T01:17:34.814Z,4.40
2023-03-07T01:20:07.576Z,4.80
2023-03-07T01:22:36.861Z,4.47
2023-03-07T01:25:04.860Z,4.63
2023-03-07T01:27:32.775Z,5.30
2023-03-07T01:30:00.697Z,4.40
2023-03-07T01:32:28.784Z,4.27
2023-03-07T01:34:56.720Z,4.40
2023-03-07T01:37:24.578Z,4.40
2023-03-07T01:39:54.594Z,3.87
2023-03-07T01:42:22.982Z,4.10
2023-03-07T01:45:08.031Z,4.17
2023-03-07T01:47:36.169Z,4.20
2023-03-07T01:50:07.843Z,4.40
2023-03-07T01:52:39.414Z,4.23
2023-03-07T01:55:12.940Z,3.73
2023-03-07T01:57:43.798Z,3.80
2023-03-07T02:00:19.754Z,3.20
2023-03-07T02:02:53.132Z,4.03
2023-03-07T02:05:26.431Z,3.80
2023-03-07T02:07:57.141Z,4.37
2023-03-07T02:10:27.383Z,3.50
2023-03-07T02:12:55.808Z,3.73
2023-03-07T02:15:24.279Z,4.00
2023-03-07T02:17:53.699Z,3.60
2023-03-07T02:20:33.273Z,3.63
2023-03-07T02:23:01.217Z,3.70
2023-03-07T02:25:38.069Z,3.83
2023-03-07T02:28:09.833Z,3.57
2023-03-07T02:30:38.076Z,4.13
2023-03-07T02:33:06.143Z,3.70
2023-03-07T02:35:37.528Z,3.80
2023-03-07T02:38:06.403Z,3.97
2023-03-07T02:40:34.598Z,3.97
2023-03-07T02:43:06.053Z,3.83
2023-03-07T02:45:35.327Z,4.00
2023-03-07T02:48:03.195Z,4.30
2023-03-07T02:50:31.216Z,3.87
2023-03-07T02:52:59.107Z,3.87
2023-03-07T02:55:26.982Z,3.97
2023-03-07T02:57:54.927Z,4.17
2023-03-07T03:00:23.446Z,4.13
2023-03-07T03:02:53.091Z,3.80
2023-03-07T03:05:20.983Z,3.90
2023-03-07T03:07:49.319Z,4.20
2023-03-07T03:10:17.775Z,4.03
2023-03-07T03:12:45.687Z,4.27
2023-03-07T03:15:13.950Z,4.30
2023-03-07T03:17:43.158Z,3.80
2023-03-07T03:20:13.757Z,4.13
2023-03-07T03:22:42.486Z,4.10
2023-03-07T03:25:13.235Z,3.90
2023-03-07T03:27:42.079Z,4.03
2023-03-07T03:30:12.410Z,3.97
2023-03-07T03:32:41.278Z,4.10
2023-03-07T03:35:09.998Z,4.23
2023-03-07T03:37:39.262Z,4.57
2023-03-07T03:40:14.585Z,4.10
2023-03-07T03:42:42.926Z,4.47
2023-03-07T03:45:12.419Z,3.60
2023-03-07T03:47:40.354Z,4.23
2023-03-07T03:50:09.365Z,4.27
2023-03-07T03:52:37.625Z,3.97
2023-03-07T03:55:08.112Z,3.87
2023-03-07T03:57:35.993Z,3.63
2023-03-07T04:00:06.007Z,4.03
2023-03-07T04:02:34.112Z,4.03
2023-03-07T04:05:05.179Z,8.70
2023-03-07T04:07:33.160Z,3.93
2023-03-07T04:10:05.146Z,4.50
2023-03-07T04:12:34.372Z,4.20
2023-03-07T04:15:02.283Z,3.90
2023-03-07T04:17:30.216Z,4.33
2023-03-07T04:19:58.092Z,8.27
2023-03-07T04:22:25.965Z,4.90
2023-03-07T04:24:55.951Z,4.60
2023-03-07T04:27:23.867Z,4.73
2023-03-07T04:29:53.299Z,4.30
2023-03-07T04:32:21.201Z,3.83
2023-03-07T04:34:49.104Z,3.80
2023-03-07T04:37:17.025Z,3.87
2023-03-07T04:39:44.988Z,3.90
2023-03-07T04:42:12.917Z,3.50
2023-03-07T04:44:40.798Z,3.80
2023-03-07T04:47:10.162Z,4.10
2023-03-07T04:49:38.267Z,4.07
2023-03-07T04:52:06.801Z,4.33
2023-03-07T04:54:35.005Z,4.20
2023-03-07T04:57:02.962Z,4.40
2023-03-07T04:59:30.789Z,4.53
2023-03-07T05:01:58.748Z,4.57
2023-03-07T05:04:28.011Z,5.07
2023-03-07T05:06:55.882Z,5.73
2023-03-07T05:09:23.786Z,4.97
2023-03-07T05:11:53.582Z,4.60
2023-03-07T05:14:21.646Z,4.47
2023-03-07T05:16:49.719Z,5.10
2023-03-07T05:19:17.606Z,4.60
2023-03-07T05:21:47.706Z,4.77
2023-03-07T05:24:16.631Z,5.03
2023-03-07T05:26:44.636Z,5.03
2023-03-07T05:29:12.686Z,5.07
2023-03-07T05:31:40.614Z,4.70
2023-03-07T05:34:09.597Z,5.40
2023-03-07T05:36:37.529Z,5.20
2023-03-07T05:39:06.827Z,4.87
2023-03-07T05:41:34.770Z,5.00
2023-03-07T05:44:03.449Z,4.90
2023-03-07T05:46:31.432Z,5.70
2023-03-07T05:48:59.332Z,5.30
2023-03-07T05:51:27.292Z,5.73
2023-03-07T05:53:55.159Z,5.53
2023-03-07T05:56:24.427Z,5.20
2023-03-07T05:58:52.354Z,5.13
2023-03-07T06:01:20.439Z,5.23
2023-03-07T06:03:48.596Z,5.70
2023-03-07T06:06:16.598Z,5.40
2023-03-07T06:08:44.529Z,5.10
2023-03-07T06:11:12.400Z,5.77
2023-03-07T06:13:41.750Z,5.57
2023-03-07T06:16:09.727Z,5.63
2023-03-07T06:18:37.582Z,5.73
2023-03-07T06:21:07.448Z,5.47
2023-03-07T06:23:37.272Z,5.27
2023-03-07T06:26:05.962Z,5.57
2023-03-07T06:28:33.854Z,4.90
2023-03-07T06:31:08.774Z,5.37
2023-03-07T06:33:36.798Z,5.27
2023-03-07T06:36:07.826Z,5.63
2023-03-07T06:38:36.091Z,5.00
2023-03-07T06:41:04.265Z,4.80
2023-03-07T06:43:32.446Z,4.90
2023-03-07T06:46:00.656Z,5.03
2023-03-07T06:48:30.060Z,4.40
2023-03-07T06:50:58.255Z,4.80
2023-03-07T06:53:26.288Z,4.83
2023-03-07T06:55:54.348Z,4.80
2023-03-07T06:58:22.313Z,4.83
2023-03-07T07:00:50.281Z,5.00
2023-03-07T07:03:20.714Z,4.70
2023-03-07T07:05:50.025Z,4.33
2023-03-07T07:08:18.084Z,5.30
2023-03-07T07:10:46.043Z,4.18
2023-03-07T07:13:14.080Z,4.90
2023-03-07T07:15:42.215Z,4.63
2023-03-07T07:18:13.219Z,4.57
2023-03-07T07:20:41.252Z,4.95
2023-03-07T07:23:10.599Z,4.95
2023-03-07T07:25:39.431Z,4.90
2023-03-07T07:28:07.359Z,4.45
2023-03-07T07:30:35.383Z,4.93
2023-03-07T07:33:03.496Z,4.77
2023-03-07T07:35:31.634Z,7.00
2023-03-07T07:37:59.687Z,4.80
2023-03-07T07:40:29.017Z,4.50
2023-03-07T07:42:56.936Z,4.30
2023-03-07T07:45:25.460Z,4.45
2023-03-07T07:47:53.664Z,3.85
2023-03-07T07:50:23.291Z,4.28
2023-03-07T07:52:53.650Z,3.90
2023-03-07T07:55:21.805Z,3.35
2023-03-07T07:57:51.154Z,5.32
2023-03-07T08:00:23.283Z,7.93
2023-03-07T08:02:52.078Z,4.00
2023-03-07T08:05:21.618Z,3.92
2023-03-07T08:07:50.472Z,3.95
2023-03-07T08:10:20.409Z,4.40
2023-03-07T08:12:52.179Z,3.78
2023-03-07T08:15:23.124Z,4.07
2023-03-07T08:17:52.566Z,3.75
2023-03-07T08:20:22.519Z,4.20
2023-03-07T08:22:50.751Z,4.38
2023-03-07T08:25:21.863Z,4.47
2023-03-07T08:27:53.665Z,4.28
2023-03-07T08:30:22.397Z,3.88
2023-03-07T08:32:51.576Z,4.63
2023-03-07T08:35:19.737Z,4.53
2023-03-07T08:37:49.171Z,4.47
2023-03-07T08:40:17.889Z,4.60
2023-03-07T08:42:45.943Z,4.15
2023-03-07T08:45:15.296Z,4.65
2023-03-07T08:47:43.269Z,4.32
2023-03-07T08:50:13.096Z,4.30
2023-03-07T08:52:41.022Z,4.05
2023-03-07T08:55:09.731Z,4.03
2023-03-07T08:57:37.678Z,4.22
2023-03-07T09:00:08.294Z,4.30
2023-03-07T09:02:37.661Z,4.90
2023-03-07T09:05:06.302Z,4.10
2023-03-07T09:07:34.304Z,3.90
2023-03-07T09:10:02.258Z,4.15
2023-03-07T09:12:30.238Z,3.80
2023-03-07T09:14:58.235Z,3.63
2023-03-07T09:17:26.310Z,3.05
2023-03-07T09:19:56.588Z,3.20
2023-03-07T09:22:24.470Z,3.33
2023-03-07T09:24:52.404Z,3.38
2023-03-07T09:27:20.526Z,3.38
2023-03-07T09:29:48.643Z,3.63
2023-03-07T09:32:16.669Z,3.60
2023-03-07T09:34:44.596Z,3.58
2023-03-07T09:37:13.982Z,3.55
2023-03-07T09:39:41.942Z,3.60
2023-03-07T09:42:21.979Z,3.90
2023-03-07T09:45:10.126Z,4.43
2023-03-07T09:48:05.268Z,3.28
2023-03-07T09:50:42.450Z,3.47
2023-03-07T09:53:21.538Z,3.00
2023-03-07T09:55:51.705Z,3.40
2023-03-07T09:58:24.279Z,3.10
2023-03-07T10:00:58.256Z,3.90
2023-03-07T10:03:34.007Z,3.13
2023-03-07T10:06:10.364Z,2.70
2023-03-07T10:08:39.688Z,2.97
2023-03-07T10:11:24.740Z,3.00
2023-03-07T10:14:14.668Z,3.10
2023-03-07T10:16:52.064Z,3.20
2023-03-07T10:19:31.866Z,2.97
2023-03-07T10:22:09.359Z,3.42
2023-03-07T10:25:08.066Z,3.38
2023-03-07T10:27:36.054Z,2.90
2023-03-07T10:30:15.864Z,2.83
2023-03-07T10:32:45.932Z,2.97
2023-03-07T10:35:20.932Z,2.63
2023-03-07T10:37:51.469Z,2.83
2023-03-07T10:40:25.406Z,2.60
2023-03-07T10:42:54.663Z,2.70
2023-03-07T10:45:23.028Z,2.53
2023-03-07T10:47:51.107Z,2.72
2023-03-07T10:50:30.945Z,2.63
2023-03-07T10:53:01.378Z,2.40
2023-03-07T10:55:37.351Z,2.58
2023-03-07T10:58:23.082Z,2.15
2023-03-07T11:01:03.986Z,2.08
2023-03-07T11:03:52.860Z,1.85
2023-03-07T11:06:32.931Z,1.73
2023-03-07T11:09:11.314Z,1.90
2023-03-07T11:11:40.616Z,2.50
2023-03-07T11:14:11.834Z,2.33
2023-03-07T11:16:42.804Z,1.80
2023-03-07T11:19:31.704Z,1.50
2023-03-07T11:22:01.653Z,1.15
2023-03-07T11:24:31.739Z,1.30
2023-03-07T11:27:02.424Z,1.38
2023-03-07T11:29:33.566Z,1.38
2023-03-07T11:32:12.444Z,1.50
2023-03-07T11:34:48.494Z,1.25
2023-03-07T11:37:29.219Z,1.23
2023-03-07T11:40:13.599Z,1.20
2023-03-07T11:42:50.291Z,1.50
2023-03-07T11:45:31.493Z,1.40
2023-03-07T11:48:14.348Z,1.38
2023-03-07T11:50:49.156Z,1.35
2023-03-07T11:53:34.141Z,1.35
2023-03-07T11:56:27.027Z,1.08
2023-03-07T11:59:28.872Z,1.60
2023-03-07T12:01:58.590Z,1.80
2023-03-07T12:04:54.819Z,1.52
2023-03-07T12:07:36.999Z,1.30
2023-03-07T12:10:17.635Z,1.38
2023-03-07T12:12:55.844Z,1.20
2023-03-07T12:15:33.528Z,1.20
2023-03-07T12:18:22.852Z,1.00
2023-03-07T12:20:58.413Z,1.20
2023-03-07T12:23:33.992Z,1.20
2023-03-07T12:26:07.851Z,1.30
2023-03-07T12:28:46.536Z,1.08
2023-03-07T12:31:23.337Z,0.75
2023-03-07T12:33:58.550Z,1.20
2023-03-07T12:36:34.188Z,1.33
2023-03-07T12:39:11.129Z,1.20
2023-03-07T12:41:59.723Z,1.08
2023-03-07T12:44:42.812Z,1.17
2023-03-07T12:47:21.188Z,0.90
2023-03-07T12:49:55.158Z,1.20
2023-03-07T12:52:35.616Z,1.10
2023-03-07T12:55:16.124Z,1.00
2023-03-07T12:57:50.248Z,1.10
2023-03-07T13:00:21.823Z,0.90
2023-03-07T13:02:59.492Z,0.80
2023-03-07T13:05:27.889Z,1.08
2023-03-07T13:07:57.604Z,0.93
2023-03-07T13:10:27.485Z,1.00
2023-03-07T13:12:55.510Z,1.55
2023-03-07T13:15:48.314Z,1.15
2023-03-07T13:18:30.184Z,0.90
2023-03-07T13:21:33.952Z,1.02
2023-03-07T13:24:37.447Z,1.00
2023-03-07T13:27:06.624Z,1.10
2023-03-07T13:30:06.618Z,1.00
2023-03-07T13:32:57.976Z,1.17
2023-03-07T13:35:55.413Z,1.13
2023-03-07T13:38:34.552Z,1.13
2023-03-07T13:41:03.609Z,1.20
2023-03-07T13:43:59.702Z,1.33
2023-03-07T13:46:46.724Z,1.05
2023-03-07T13:49:36.405Z,1.00
2023-03-07T13:52:46.350Z,0.90
2023-03-07T13:55:39.646Z,1.20
2023-03-07T13:58:20.907Z,1.20
2023-03-07T14:00:56.165Z,1.13
2023-03-07T14:03:32.109Z,1.10
2023-03-07T14:06:04.694Z,1.20
2023-03-07T14:08:36.206Z,1.10
2023-03-07T14:11:08.273Z,1.25
2023-03-07T14:14:15.778Z,1.25
2023-03-07T14:16:54.179Z,1.27
2023-03-07T14:19:38.867Z,1.05
2023-03-07T14:22:19.011Z,1.15
2023-03-07T14:25:04.966Z,1.10
2023-03-07T14:27:50.828Z,1.25
2023-03-07T14:30:20.146Z,1.27
2023-03-07T14:32:48.090Z,1.27
2023-03-07T14:35:16.398Z,1.05
2023-03-07T14:37:45.337Z,1.40
2023-03-07T14:40:29.787Z,1.50
2023-03-07T14:43:13.785Z,1.17
2023-03-07T14:45:49.794Z,1.50
2023-03-07T14:48:38.597Z,1.40
2023-03-07T14:51:16.293Z,1.30
2023-03-07T14:53:44.798Z,1.23
2023-03-07T14:56:19.859Z,1.60
2023-03-07T14:58:52.373Z,1.30
2023-03-07T15:01:21.307Z,1.83
2023-03-07T15:03:51.081Z,1.40
2023-03-07T15:06:21.140Z,1.27
2023-03-07T15:08:51.240Z,1.38
2023-03-07T15:11:32.880Z,1.27
2023-03-07T15:14:05.639Z,1.10
2023-03-07T15:16:37.531Z,1.17
2023-03-07T15:19:12.662Z,1.40
2023-03-07T15:21:45.495Z,1.10
2023-03-07T15:24:18.995Z,1.30
2023-03-07T15:26:51.970Z,1.20
2023-03-07T15:29:23.482Z,1.30
2023-03-07T15:31:53.446Z,1.20
2023-03-07T15:34:27.162Z,1.10
2023-03-07T15:36:55.178Z,1.02
2023-03-07T15:39:34.476Z,1.30
2023-03-07T15:42:05.561Z,1.20
2023-03-07T15:44:36.467Z,1.10
2023-03-07T15:47:14.349Z,1.60
2023-03-07T15:49:47.271Z,1.10
2023-03-07T15:52:23.746Z,1.35
2023-03-07T15:54:53.156Z,1.20
2023-03-07T15:57:24.020Z,1.40
2023-03-07T15:59:58.384Z,1.33
2023-03-07T16:02:39.757Z,1.13
2023-03-07T16:05:23.829Z,1.25
2023-03-07T16:07:53.243Z,1.40
2023-03-07T16:10:24.176Z,0.98
2023-03-07T16:12:54.742Z,1.40
2023-03-07T16:15:25.534Z,1.35
2023-03-07T16:17:56.364Z,1.17
2023-03-07T16:20:26.630Z,1.25
2023-03-07T16:22:55.238Z,1.38
2023-03-07T16:25:24.968Z,1.30
2023-03-07T16:27:56.647Z,1.23
2023-03-07T16:30:27.805Z,1.42
2023-03-07T16:32:56.410Z,1.45
2023-03-07T16:35:25.727Z,1.00
2023-03-07T16:37:54.404Z,1.25
2023-03-07T16:40:25.980Z,1.23
2023-03-07T16:42:54.160Z,1.33
2023-03-07T16:45:26.875Z,1.55
2023-03-07T16:47:57.261Z,1.50
2023-03-07T16:50:27.703Z,1.50
2023-03-07T16:52:56.167Z,1.52
2023-03-07T16:55:24.784Z,1.48
2023-03-07T16:57:56.274Z,1.63
2023-03-07T17:00:27.978Z,1.50
2023-03-07T17:02:59.355Z,1.45
2023-03-07T17:05:29.440Z,1.33
2023-03-07T17:07:58.854Z,1.90
2023-03-07T17:10:28.105Z,1.33
2023-03-07T17:12:57.434Z,1.20
2023-03-07T17:15:30.985Z,1.67
2023-03-07T17:17:59.755Z,1.40
2023-03-07T17:20:28.870Z,1.40
2023-03-07T17:22:57.080Z,1.58
2023-03-07T17:25:25.551Z,1.50
2023-03-07T17:27:56.280Z,1.30
2023-03-07T17:30:27.330Z,1.60
2023-03-07T17:32:57.700Z,1.30
2023-03-07T17:35:26.207Z,1.40
2023-03-07T17:37:54.461Z,1.45
2023-03-07T17:40:23.324Z,1.58
2023-03-07T17:42:54.710Z,1.30
2023-03-07T17:45:23.216Z,1.30
2023-03-07T17:47:54.017Z,1.45
2023-03-07T17:50:24.028Z,1.80
2023-03-07T17:52:52.786Z,1.30
2023-03-07T17:55:21.093Z,1.92
2023-03-07T17:57:50.014Z,1.70
2023-03-07T18:00:20.780Z,1.60
2023-03-07T18:02:49.069Z,1.20
2023-03-07T18:05:20.220Z,1.40
2023-03-07T18:07:49.336Z,1.30
2023-03-07T18:10:17.568Z,1.73
2023-03-07T18:12:46.125Z,1.42
2023-03-07T18:15:16.283Z,1.55
2023-03-07T18:17:48.892Z,1.20
2023-03-07T18:20:21.556Z,1.40
2023-03-07T18:22:49.899Z,1.20
2023-03-07T18:25:19.072Z,1.20
2023-03-07T18:27:47.428Z,1.70
2023-03-07T18:30:16.014Z,1.50
2023-03-07T18:32:43.994Z,1.42
2023-03-07T18:35:12.439Z,1.30
2023-03-07T18:37:43.547Z,1.33
2023-03-07T18:40:15.038Z,1.40
2023-03-07T18:42:43.516Z,1.50
2023-03-07T18:45:13.562Z,1.50
2023-03-07T18:47:56.144Z,1.73
2023-03-07T18:50:24.159Z,1.40
2023-03-07T18:52:53.776Z,1.40
2023-03-07T18:55:21.730Z,1.70
2023-03-07T18:57:49.668Z,1.50
2023-03-07T19:00:18.324Z,1.30
2023-03-07T19:02:46.161Z,1.45
2023-03-07T19:05:14.369Z,1.30
2023-03-07T19:07:42.440Z,1.10
2023-03-07T19:10:13.324Z,3.42
2023-03-07T19:12:41.326Z,1.73
2023-03-07T19:15:10.023Z,1.50
2023-03-07T19:17:42.606Z,1.63
2023-03-07T19:20:12.043Z,1.58
2023-03-07T19:22:40.059Z,1.63
2023-03-07T19:25:09.826Z,1.50
2023-03-07T19:27:39.072Z,1.60
2023-03-07T19:30:07.890Z,1.50
2023-03-07T19:32:36.023Z,1.50
2023-03-07T19:35:04.366Z,1.45
2023-03-07T19:37:32.315Z,1.40
2023-03-07T19:40:02.216Z,1.40
2023-03-07T19:42:32.623Z,2.23
2023-03-07T19:45:01.890Z,1.60
2023-03-07T19:47:29.782Z,1.70
2023-03-07T19:49:57.685Z,1.73
2023-03-07T19:52:25.645Z,1.57
2023-03-07T19:54:54.503Z,1.47
2023-03-07T19:57:25.045Z,1.67
2023-03-07T19:59:53.940Z,1.67
2023-03-07T20:02:23.586Z,1.67
2023-03-07T20:04:55.425Z,1.63
2023-03-07T20:07:23.560Z,1.80
2023-03-07T20:09:52.541Z,1.83
2023-03-07T20:12:20.617Z,1.50
2023-03-07T20:14:48.728Z,2.17
2023-03-07T20:17:16.841Z,2.73
2023-03-07T20:19:46.185Z,4.30
2023-03-07T20:22:14.186Z,5.53
2023-03-07T20:24:42.111Z,4.20
2023-03-07T20:27:10.119Z,4.70
2023-03-07T20:29:37.986Z,4.30
2023-03-07T20:32:06.487Z,3.03
2023-03-07T20:34:37.305Z,2.57
2023-03-07T20:37:06.563Z,3.20
2023-03-07T20:39:34.529Z,9.73
2023-03-07T20:42:03.066Z,3.20
2023-03-07T20:44:31.042Z,3.70
2023-03-07T20:47:02.081Z,3.30
2023-03-07T20:49:31.899Z,4.87
2023-03-07T20:51:59.886Z,3.80
2023-03-07T20:54:29.204Z,3.90
2023-03-07T20:56:57.193Z,3.50
2023-03-07T20:59:25.135Z,3.60
2023-03-07T21:01:53.080Z,5.20
2023-03-07T21:04:21.195Z,7.13
2023-03-07T21:06:49.859Z,5.60
2023-03-07T21:09:19.272Z,5.60
2023-03-07T21:11:50.176Z,25.33
2023-03-07T21:14:19.600Z,6.80
2023-03-07T21:16:47.526Z,5.97
2023-03-07T21:19:15.691Z,4.03
2023-03-07T21:21:43.932Z,3.33
2023-03-07T21:24:13.086Z,3.97
2023-03-07T21:26:43.439Z,3.53
2023-03-07T21:29:14.081Z,6.47
2023-03-07T21:31:42.221Z,4.93
2023-03-07T21:34:13.584Z,3.83
2023-03-07T21:36:41.798Z,4.30
2023-03-07T21:39:10.212Z,4.10
2023-03-07T21:41:38.110Z,3.97
2023-03-07T21:44:06.237Z,4.93
2023-03-07T21:46:35.925Z,3.20
2023-03-07T21:49:03.831Z,3.60
2023-03-07T21:51:31.752Z,4.27
2023-03-07T21:53:59.602Z,3.37
2023-03-07T21:56:27.482Z,3.10
2023-03-07T21:58:55.523Z,4.37
2023-03-07T22:01:27.533Z,3.27
2023-03-07T22:03:58.915Z,4.00
2023-03-07T22:06:28.838Z,3.57
2023-03-07T22:08:56.765Z,3.60
2023-03-07T22:11:24.663Z,2.97
2023-03-07T22:13:52.562Z,2.93
2023-03-07T22:16:21.690Z,2.57
2023-03-07T22:18:53.940Z,2.93
2023-03-07T22:21:25.056Z,3.30
2023-03-07T22:23:57.681Z,2.80
2023-03-07T22:26:26.246Z,3.00
2023-03-07T22:28:54.558Z,3.17
2023-03-07T22:31:22.694Z,4.03
2023-03-07T22:33:50.672Z,3.57
2023-03-07T22:36:18.901Z,3.17
2023-03-07T22:38:48.265Z,3.63
2023-03-07T22:41:18.001Z,3.17
2023-03-07T22:43:46.152Z,2.83
2023-03-07T22:46:14.618Z,3.00
2023-03-07T22:48:42.530Z,2.60
2023-03-07T22:51:14.054Z,2.50
2023-03-07T22:53:42.257Z,3.00
2023-03-07T22:56:16.126Z,3.00
2023-03-07T22:58:44.111Z,3.27
2023-03-07T23:01:14.224Z,2.60
2023-03-07T23:03:42.478Z,2.70
2023-03-07T23:06:10.645Z,3.07
2023-03-07T23:08:38.539Z,3.13
2023-03-07T23:11:10.197Z,3.43
2023-03-07T23:13:39.810Z,3.00
2023-03-07T23:16:09.797Z,3.00
2023-03-07T23:18:38.256Z,2.90
2023-03-07T23:21:07.511Z,2.90
2023-03-07T23:23:35.476Z,16.30
2023-03-07T23:26:03.805Z,6.83
2023-03-07T23:28:33.228Z,2.87
2023-03-07T23:31:02.517Z,3.27
2023-03-07T23:33:30.496Z,2.73
2023-03-07T23:36:00.502Z,2.90
2023-03-07T23:38:28.529Z,2.73
2023-03-07T23:40:56.369Z,2.50
2023-03-07T23:43:24.213Z,2.90
2023-03-07T23:45:52.102Z,2.73
2023-03-07T23:48:21.401Z,2.83
2023-03-07T23:50:50.188Z,2.47
2023-03-07T23:53:18.062Z,2.80
2023-03-07T23:55:46.040Z,2.60
2023-03-07T23:58:13.971Z,2.80
